createdAt,value
2022-09-06T00:00:20.309Z,99644.14
2022-09-06T00:02:25.264Z,99643.52
2022-09-06T00:04:30.693Z,99643.67
2022-09-06T00:06:35.538Z,99641.39
2022-09-06T00:08:40.806Z,99641.15
2022-09-06T00:10:45.581Z,99640.77
2022-09-06T00:12:50.252Z,99636.49
2022-09-06T00:14:55.095Z,99631.77
2022-09-06T00:17:00.588Z,99628.83
2022-09-06T00:19:05.332Z,99624.73
2022-09-06T00:21:18.368Z,99621.77
2022-09-06T00:23:23.083Z,99619.20
2022-09-06T00:25:28.209Z,99618.69
2022-09-06T00:27:33.377Z,99617.06
2022-09-06T00:29:38.076Z,99614.52
2022-09-06T00:31:42.887Z,99616.71
2022-09-06T00:33:48.038Z,99619.15
2022-09-06T00:36:00.087Z,99623.48
2022-09-06T00:38:04.835Z,99626.70
2022-09-06T00:40:11.289Z,99635.09
2022-09-06T00:42:16.127Z,99635.48
2022-09-06T00:44:20.865Z,99632.23
2022-09-06T00:46:28.139Z,99630.54
2022-09-06T00:48:33.326Z,99628.05
2022-09-06T00:50:38.788Z,99628.39
2022-09-06T00:52:45.587Z,99627.07
2022-09-06T00:54:52.768Z,99625.15
2022-09-06T00:56:58.321Z,99625.65
2022-09-06T00:59:03.361Z,99623.68
2022-09-06T01:01:08.178Z,99622.95
2022-09-06T01:03:13.801Z,99624.67
2022-09-06T01:05:20.371Z,99623.36
2022-09-06T01:07:36.008Z,99619.87
2022-09-06T01:09:56.851Z,99618.29
2022-09-06T01:12:26.576Z,99612.63
2022-09-06T01:14:43.429Z,99612.48
2022-09-06T01:16:57.636Z,99611.54
2022-09-06T01:19:27.430Z,99608.69
2022-09-06T01:21:45.413Z,99609.16
2022-09-06T01:24:11.697Z,99605.14
2022-09-06T01:26:36.759Z,99608.85
2022-09-06T01:28:43.882Z,99607.16
2022-09-06T01:30:52.220Z,99605.98
2022-09-06T01:33:07.059Z,99609.23
2022-09-06T01:35:20.358Z,99615.64
2022-09-06T01:37:25.730Z,99617.39
2022-09-06T01:39:33.591Z,99619.91
2022-09-06T01:41:38.539Z,99619.48
2022-09-06T01:43:47.951Z,99618.58
2022-09-06T01:46:01.936Z,99617.27
2022-09-06T01:48:15.882Z,99612.15
2022-09-06T01:50:42.457Z,99615.13
2022-09-06T01:52:57.459Z,99614.56
2022-09-06T01:55:17.907Z,99607.08
2022-09-06T01:57:36.029Z,99600.77
2022-09-06T02:00:05.728Z,99604.62
2022-09-06T02:02:24.748Z,99601.77
2022-09-06T02:04:33.963Z,99598.73
2022-09-06T02:06:43.957Z,99600.48
2022-09-06T02:08:53.529Z,99598.79
2022-09-06T02:11:02.279Z,99599.05
2022-09-06T02:13:09.782Z,99600.21
2022-09-06T02:15:19.790Z,99597.66
2022-09-06T02:17:30.438Z,99596.98
2022-09-06T02:19:39.856Z,99592.79
2022-09-06T02:21:47.452Z,99590.88
2022-09-06T02:23:54.122Z,99587.23
2022-09-06T02:26:05.006Z,99582.35
2022-09-06T02:28:10.906Z,99581.48
2022-09-06T02:30:15.998Z,99581.59
2022-09-06T02:32:22.971Z,99582.48
2022-09-06T02:34:27.725Z,99586.39
2022-09-06T02:36:32.962Z,99589.38
2022-09-06T02:38:40.458Z,99589.70
2022-09-06T02:40:46.490Z,99590.19
2022-09-06T02:42:51.474Z,99587.42
2022-09-06T02:44:56.152Z,99590.73
2022-09-06T02:47:00.967Z,99592.30
2022-09-06T02:49:05.987Z,99593.16
2022-09-06T02:51:10.992Z,99595.70
2022-09-06T02:53:16.888Z,99594.77
2022-09-06T02:55:21.646Z,99598.20
2022-09-06T02:57:26.403Z,99590.17
2022-09-06T02:59:31.114Z,99586.14
2022-09-06T03:01:36.188Z,99589.33
2022-09-06T03:03:41.085Z,99585.40
2022-09-06T03:05:48.591Z,99586.05
2022-09-06T03:07:53.891Z,99586.80
2022-09-06T03:09:58.508Z,99590.56
2022-09-06T03:12:03.644Z,99585.39
2022-09-06T03:14:08.367Z,99587.09
2022-09-06T03:16:13.083Z,99587.39
2022-09-06T03:18:17.930Z,99585.42
2022-09-06T03:20:22.704Z,99587.55
2022-09-06T03:22:30.451Z,99584.97
2022-09-06T03:24:35.188Z,99583.92
2022-09-06T03:26:40.053Z,99581.67
2022-09-06T03:28:44.845Z,99583.19
2022-09-06T03:30:51.482Z,99584.98
2022-09-06T03:32:57.010Z,99580.97
2022-09-06T03:35:03.976Z,99578.02
2022-09-06T03:37:10.128Z,99577.30
2022-09-06T03:39:14.808Z,99574.23
2022-09-06T03:41:19.617Z,99568.52
2022-09-06T03:43:25.856Z,99568.10
2022-09-06T03:45:30.601Z,99569.61
2022-09-06T03:47:35.406Z,99569.27
2022-09-06T03:49:42.805Z,99570.98
2022-09-06T03:51:47.829Z,99568.11
2022-09-06T03:53:52.698Z,99568.86
2022-09-06T03:55:58.470Z,99573.34
2022-09-06T03:58:03.249Z,99570.34
2022-09-06T04:00:09.894Z,99572.98
2022-09-06T04:02:17.619Z,99573.17
2022-09-06T04:04:22.440Z,99577.55
2022-09-06T04:06:27.254Z,99577.48
2022-09-06T04:08:32.713Z,99577.89
2022-09-06T04:10:37.419Z,99576.34
2022-09-06T04:12:42.101Z,99573.84
2022-09-06T04:14:46.964Z,99576.84
2022-09-06T04:16:51.998Z,99579.65
2022-09-06T04:18:56.746Z,99576.80
2022-09-06T04:21:01.550Z,99581.98
2022-09-06T04:23:06.309Z,99579.29
2022-09-06T04:25:11.976Z,99577.61
2022-09-06T04:27:16.677Z,99576.60
2022-09-06T04:29:21.385Z,99574.66
2022-09-06T04:31:26.110Z,99577.15
2022-09-06T04:33:32.933Z,99583.08
2022-09-06T04:35:37.733Z,99580.10
2022-09-06T04:37:42.521Z,99581.00
2022-09-06T04:39:47.358Z,99576.56
2022-09-06T04:41:52.129Z,99577.42
2022-09-06T04:43:57.160Z,99577.77
2022-09-06T04:46:07.375Z,99579.70
2022-09-06T04:48:12.562Z,99579.77
2022-09-06T04:50:17.562Z,99583.02
2022-09-06T04:52:27.054Z,99584.96
2022-09-06T04:54:35.307Z,99584.02
2022-09-06T04:56:40.128Z,99592.04
2022-09-06T04:58:46.033Z,99594.95
2022-09-06T05:00:51.264Z,99593.98
2022-09-06T05:02:56.644Z,99589.52
2022-09-06T05:05:01.549Z,99591.84
2022-09-06T05:07:07.976Z,99591.59
2022-09-06T05:09:12.976Z,99592.49
2022-09-06T05:11:18.385Z,99594.64
2022-09-06T05:13:23.257Z,99596.82
2022-09-06T05:15:28.109Z,99597.83
2022-09-06T05:17:33.470Z,99599.09
2022-09-06T05:19:38.153Z,99600.48
2022-09-06T05:21:42.862Z,99602.27
2022-09-06T05:23:47.699Z,99599.73
2022-09-06T05:25:52.939Z,99601.23
2022-09-06T05:27:57.842Z,99605.17
2022-09-06T05:30:02.832Z,99604.22
2022-09-06T05:32:07.848Z,99604.84
2022-09-06T05:34:12.759Z,99606.80
2022-09-06T05:36:17.475Z,99603.36
2022-09-06T05:38:22.150Z,99606.94
2022-09-06T05:40:26.915Z,99607.73
2022-09-06T05:42:31.523Z,99611.43
2022-09-06T05:44:36.974Z,99609.23
2022-09-06T05:46:44.897Z,99606.95
2022-09-06T05:48:55.589Z,99608.35
2022-09-06T05:51:05.073Z,99609.31
2022-09-06T05:53:09.941Z,99609.76
2022-09-06T05:55:15.048Z,99608.88
2022-09-06T05:57:20.065Z,99613.80
2022-09-06T05:59:25.129Z,99612.08
2022-09-06T06:01:31.335Z,99613.39
2022-09-06T06:03:36.182Z,99611.89
2022-09-06T06:05:40.911Z,99612.86
2022-09-06T06:07:45.615Z,99614.79
2022-09-06T06:09:50.269Z,99613.59
2022-09-06T06:11:54.977Z,99610.18
2022-09-06T06:13:59.656Z,99613.44
2022-09-06T06:16:05.138Z,99608.95
2022-09-06T06:18:09.861Z,99604.16
2022-09-06T06:20:14.672Z,99597.23
2022-09-06T06:22:19.340Z,99603.08
2022-09-06T06:24:24.669Z,99610.16
2022-09-06T06:26:31.241Z,99614.22
2022-09-06T06:28:36.472Z,99611.13
2022-09-06T06:30:41.423Z,99611.88
2022-09-06T06:32:46.089Z,99609.52
2022-09-06T06:34:50.784Z,99607.80
2022-09-06T06:36:55.589Z,99603.33
2022-09-06T06:39:00.989Z,99608.23
2022-09-06T06:41:07.416Z,99606.10
2022-09-06T06:43:12.118Z,99609.80
2022-09-06T06:45:16.939Z,99608.27
2022-09-06T06:47:21.708Z,99607.67
2022-09-06T06:49:26.885Z,99607.08
2022-09-06T06:51:34.976Z,99605.67
2022-09-06T06:53:39.718Z,99612.31
2022-09-06T06:55:48.800Z,99611.90
2022-09-06T06:57:53.495Z,99612.05
2022-09-06T06:59:58.219Z,99607.89
2022-09-06T07:02:02.990Z,99609.45
2022-09-06T07:04:07.847Z,99609.86
2022-09-06T07:06:13.375Z,99603.39
2022-09-06T07:08:18.318Z,99605.98
2022-09-06T07:10:38.301Z,99610.34
2022-09-06T07:12:43.015Z,99610.27
2022-09-06T07:14:47.717Z,99607.11
2022-09-06T07:16:52.410Z,99607.34
2022-09-06T07:18:57.180Z,99607.98
2022-09-06T07:25:51.615Z,99604.73
2022-09-06T07:28:03.897Z,99609.45
2022-09-06T07:30:13.368Z,99607.38
2022-09-06T07:32:18.046Z,99611.59
2022-09-06T07:34:23.016Z,99614.83
2022-09-06T07:36:27.809Z,99618.83
2022-09-06T07:38:33.606Z,99625.11
2022-09-06T07:40:38.435Z,99622.90
2022-09-06T07:42:43.168Z,99628.17
2022-09-06T07:44:47.832Z,99624.94
2022-09-06T07:46:52.840Z,99625.89
2022-09-06T07:48:57.732Z,99618.98
2022-09-06T07:51:08.182Z,99622.60
2022-09-06T07:53:16.610Z,99624.30
2022-09-06T07:55:24.238Z,99621.91
2022-09-06T07:57:29.139Z,99618.99
2022-09-06T07:59:33.948Z,99616.48
2022-09-06T08:01:39.733Z,99614.77
2022-09-06T08:03:45.157Z,99614.55
2022-09-06T08:10:37.812Z,99614.27
2022-09-06T08:12:42.533Z,99613.57
2022-09-06T08:14:47.259Z,99617.42
2022-09-06T08:16:52.031Z,99614.25
2022-09-06T08:18:58.966Z,99615.80
2022-09-06T08:21:12.898Z,99613.70
2022-09-06T08:23:17.973Z,99612.89
2022-09-06T08:25:22.724Z,99611.86
2022-09-06T08:27:27.423Z,99614.05
2022-09-06T08:29:32.193Z,99611.41
2022-09-06T08:31:38.568Z,99601.49
2022-09-06T08:33:46.599Z,99603.45
2022-09-06T08:35:58.207Z,99603.54
2022-09-06T08:38:02.940Z,99602.13
2022-09-06T08:40:09.088Z,99601.55
2022-09-06T08:42:14.397Z,99601.35
2022-09-06T08:46:55.772Z,99602.96
2022-09-06T08:49:00.681Z,99604.81
2022-09-06T08:51:22.488Z,99606.11
2022-09-06T08:53:27.839Z,99604.97
2022-09-06T08:55:41.029Z,99604.11
2022-09-06T08:57:59.011Z,99604.68
2022-09-06T09:00:11.029Z,99597.13
2022-09-06T09:02:20.179Z,99591.95
2022-09-06T09:04:28.798Z,99590.45
2022-09-06T09:06:34.925Z,99591.33
2022-09-06T09:08:47.744Z,99587.98
2022-09-06T09:10:59.082Z,99583.84
2022-09-06T09:13:07.602Z,99584.15
2022-09-06T09:15:14.969Z,99585.00
2022-09-06T09:17:25.883Z,99584.67
2022-09-06T09:19:30.664Z,99583.58
2022-09-06T09:21:39.101Z,99579.95
2022-09-06T09:23:45.956Z,99578.73
2022-09-06T09:25:52.603Z,99573.27
2022-09-06T09:27:57.842Z,99571.86
2022-09-06T09:32:35.229Z,99562.95
2022-09-06T09:34:40.741Z,99560.76
2022-09-06T09:39:14.151Z,99563.01
2022-09-06T09:41:30.450Z,99564.48
2022-09-06T09:43:38.407Z,99557.23
2022-09-06T09:45:43.633Z,99551.21
2022-09-06T09:47:49.798Z,99550.28
2022-09-06T09:49:54.467Z,99545.64
2022-09-06T09:52:10.666Z,99545.61
2022-09-06T09:54:30.034Z,99539.00
2022-09-06T09:56:45.389Z,99536.73
2022-09-06T09:58:50.275Z,99537.80
2022-09-06T10:01:12.251Z,99535.66
2022-09-06T10:03:31.229Z,99535.66
2022-09-06T10:05:39.525Z,99532.10
2022-09-06T10:07:46.975Z,99534.48
2022-09-06T10:10:00.715Z,99530.87
2022-09-06T10:12:06.442Z,99522.95
2022-09-06T10:14:26.166Z,99523.98
2022-09-06T10:16:44.661Z,99520.99
2022-09-06T10:18:49.418Z,99518.46
2022-09-06T10:20:58.068Z,99516.36
2022-09-06T10:23:10.414Z,99515.80
2022-09-06T10:25:46.390Z,99516.13
2022-09-06T10:28:12.102Z,99515.84
2022-09-06T10:30:17.258Z,99522.61
2022-09-06T10:32:39.629Z,99516.10
2022-09-06T10:34:59.803Z,99516.68
2022-09-06T10:37:16.446Z,99511.64
2022-09-06T10:39:40.013Z,99515.98
2022-09-06T10:41:58.535Z,99516.29
2022-09-06T10:44:15.109Z,99512.36
2022-09-06T10:46:25.314Z,99510.35
2022-09-06T10:48:32.545Z,99512.33
2022-09-06T10:50:45.782Z,99516.60
2022-09-06T10:52:53.487Z,99511.44
2022-09-06T10:55:02.518Z,99508.98
2022-09-06T10:59:47.557Z,99504.49
2022-09-06T11:02:08.717Z,99506.08
2022-09-06T11:04:20.612Z,99511.70
2022-09-06T11:06:31.626Z,99505.33
2022-09-06T11:08:46.798Z,99506.95
2022-09-06T11:10:53.377Z,99498.30
2022-09-06T11:13:03.638Z,99496.54
2022-09-06T11:15:12.326Z,99491.70
2022-09-06T11:17:28.393Z,99490.66
2022-09-06T11:19:40.135Z,99488.57
2022-09-06T11:22:05.949Z,99482.27
2022-09-06T11:24:14.826Z,99484.23
2022-09-06T11:26:34.159Z,99484.73
2022-09-06T11:28:43.897Z,99490.38
2022-09-06T11:30:53.444Z,99487.70
2022-09-06T11:33:12.470Z,99481.64
2022-09-06T11:35:26.767Z,99484.59
2022-09-06T11:37:34.876Z,99479.99
2022-09-06T11:42:30.362Z,99474.31
2022-09-06T11:44:53.764Z,99476.83
2022-09-06T11:47:02.344Z,99476.73
2022-09-06T11:49:08.621Z,99476.76
2022-09-06T11:51:30.642Z,99473.63
2022-09-06T11:53:56.470Z,99474.06
2022-09-06T11:56:25.868Z,99476.05
2022-09-06T11:58:33.964Z,99474.06
2022-09-06T12:00:38.653Z,99472.71
2022-09-06T12:02:43.957Z,99468.35
2022-09-06T12:05:10.437Z,99462.11
2022-09-06T12:07:15.208Z,99463.54
2022-09-06T12:09:32.040Z,99463.63
2022-09-06T12:11:42.476Z,99456.80
2022-09-06T12:13:55.912Z,99460.98
2022-09-06T12:16:01.085Z,99458.72
2022-09-06T12:18:05.829Z,99456.92
2022-09-06T12:20:10.558Z,99452.94
2022-09-06T12:23:01.354Z,99452.77
2022-09-06T12:25:18.875Z,99450.38
2022-09-06T12:27:25.400Z,99451.23
2022-09-06T12:29:31.123Z,99449.28
2022-09-06T12:31:39.564Z,99448.74
2022-09-06T12:33:44.518Z,99448.38
2022-09-06T12:35:57.374Z,99445.46
2022-09-06T12:38:04.240Z,99441.05
2022-09-06T12:40:11.635Z,99436.98
2022-09-06T12:42:16.463Z,99431.83
2022-09-06T12:44:29.118Z,99430.48
2022-09-06T12:46:34.562Z,99435.05
2022-09-06T12:48:39.375Z,99431.87
2022-09-06T12:50:44.116Z,99429.24
2022-09-06T12:52:51.205Z,99427.63
2022-09-06T12:54:55.953Z,99425.13
2022-09-06T12:57:14.167Z,99424.15
2022-09-06T12:59:21.405Z,99421.52
2022-09-06T13:01:32.379Z,99419.00
2022-09-06T13:03:41.068Z,99418.61
2022-09-06T13:05:46.678Z,99416.17
2022-09-06T13:07:53.982Z,99411.52
2022-09-06T13:09:59.017Z,99412.73
2022-09-06T13:12:08.847Z,99408.38
2022-09-06T13:14:17.636Z,99408.05
2022-09-06T13:16:36.984Z,99408.76
2022-09-06T13:18:41.810Z,99410.27
2022-09-06T13:20:57.135Z,99410.88
2022-09-06T13:23:10.379Z,99407.52
2022-09-06T13:25:25.838Z,99407.84
2022-09-06T13:27:36.504Z,99400.88
2022-09-06T13:29:54.142Z,99400.61
2022-09-06T13:32:01.379Z,99394.38
2022-09-06T13:34:06.596Z,99390.71
2022-09-06T13:36:21.879Z,99387.02
2022-09-06T13:38:38.578Z,99389.13
2022-09-06T13:41:09.747Z,99389.23
2022-09-06T13:43:11.435Z,99394.02
2022-09-06T13:45:25.166Z,99391.73
2022-09-06T13:47:33.609Z,99385.42
2022-09-06T13:49:38.307Z,99389.18
2022-09-06T13:51:46.611Z,99390.52
2022-09-06T13:53:51.976Z,99386.02
2022-09-06T13:55:56.642Z,99382.44
2022-09-06T13:58:02.741Z,99387.09
2022-09-06T14:00:10.169Z,99386.61
2022-09-06T14:02:15.624Z,99384.84
2022-09-06T14:04:21.995Z,99384.17
2022-09-06T14:06:26.899Z,99386.23
2022-09-06T14:08:55.747Z,99384.52
2022-09-06T14:10:56.846Z,99383.52
2022-09-06T14:13:01.552Z,99380.06
2022-09-06T14:15:08.342Z,99377.94
2022-09-06T14:17:13.070Z,99375.45
2022-09-06T14:19:17.913Z,99375.15
2022-09-06T14:21:22.828Z,99374.63
2022-09-06T14:23:28.116Z,99377.91
2022-09-06T14:25:34.139Z,99371.13
2022-09-06T14:27:38.836Z,99370.96
2022-09-06T14:29:43.557Z,99370.17
2022-09-06T14:31:48.300Z,99371.36
2022-09-06T14:33:53.495Z,99366.45
2022-09-06T14:35:58.197Z,99360.45
2022-09-06T14:38:02.979Z,99360.30
2022-09-06T14:40:09.570Z,99360.61
2022-09-06T14:42:14.363Z,99362.33
2022-09-06T14:44:19.324Z,99362.89
2022-09-06T14:46:25.857Z,99358.08
2022-09-06T14:48:30.820Z,99351.91
2022-09-06T14:50:36.302Z,99357.22
2022-09-06T14:52:41.019Z,99361.34
2022-09-06T14:54:46.102Z,99360.63
2022-09-06T14:56:50.813Z,99358.37
2022-09-06T14:58:56.495Z,99360.18
2022-09-06T15:01:10.235Z,99361.04
2022-09-06T15:03:15.029Z,99361.64
2022-09-06T15:05:19.817Z,99355.56
2022-09-06T15:07:24.578Z,99358.48
2022-09-06T15:09:29.389Z,99362.15
2022-09-06T15:11:35.760Z,99366.99
2022-09-06T15:13:41.567Z,99362.61
2022-09-06T15:15:46.371Z,99364.09
2022-09-06T15:17:51.167Z,99366.05
2022-09-06T15:19:55.980Z,99363.21
2022-09-06T15:22:00.914Z,99357.01
2022-09-06T15:24:11.044Z,99353.48
2022-09-06T15:26:16.703Z,99353.17
2022-09-06T15:28:21.387Z,99351.48
2022-09-06T15:30:26.126Z,99354.61
2022-09-06T15:32:30.910Z,99354.39
2022-09-06T15:34:35.619Z,99353.73
2022-09-06T15:36:40.393Z,99355.04
2022-09-06T15:38:46.771Z,99354.11
2022-09-06T15:40:51.682Z,99355.50
2022-09-06T15:42:56.483Z,99351.10
2022-09-06T15:45:01.320Z,99354.33
2022-09-06T15:47:06.221Z,99355.02
2022-09-06T15:49:13.231Z,99354.23
2022-09-06T15:51:20.179Z,99351.52
2022-09-06T15:53:25.131Z,99353.60
2022-09-06T15:55:31.920Z,99348.98
2022-09-06T15:57:36.665Z,99347.60
2022-09-06T15:59:42.226Z,99350.21
2022-09-06T16:01:46.976Z,99346.95
2022-09-06T16:03:53.305Z,99346.69
2022-09-06T16:08:27.133Z,99349.25
2022-09-06T16:10:32.046Z,99342.81
2022-09-06T16:12:36.795Z,99341.96
2022-09-06T16:14:41.634Z,99342.06
2022-09-06T16:16:46.727Z,99346.42
2022-09-06T16:18:51.768Z,99343.60
2022-09-06T16:20:56.526Z,99347.33
2022-09-06T16:23:01.289Z,99345.98
2022-09-06T16:25:07.308Z,99344.33
2022-09-06T16:27:12.250Z,99344.75
2022-09-06T16:29:18.361Z,99349.73
2022-09-06T16:31:24.169Z,99348.38
2022-09-06T16:33:29.269Z,99349.11
2022-09-06T16:35:34.049Z,99347.11
2022-09-06T16:37:41.568Z,99347.33
2022-09-06T16:39:46.301Z,99346.44
2022-09-06T16:41:50.961Z,99348.70
2022-09-06T16:43:55.695Z,99352.72
2022-09-06T16:46:01.605Z,99354.34
2022-09-06T16:48:07.635Z,99353.23
2022-09-06T16:50:12.510Z,99350.66
2022-09-06T16:52:17.283Z,99353.53
2022-09-06T16:54:22.429Z,99355.94
2022-09-06T16:56:28.920Z,99357.77
2022-09-06T16:58:33.704Z,99353.95
2022-09-06T17:00:41.012Z,99358.64
2022-09-06T17:02:47.196Z,99357.90
2022-09-06T17:04:52.072Z,99362.66
2022-09-06T17:06:56.792Z,99362.63
2022-09-06T17:09:01.746Z,99363.01
2022-09-06T17:11:08.627Z,99361.58
2022-09-06T17:13:13.974Z,99362.32
2022-09-06T17:15:21.876Z,99364.92
2022-09-06T17:17:26.715Z,99367.23
2022-09-06T17:19:33.877Z,99363.22
2022-09-06T17:21:38.808Z,99362.77
2022-09-06T17:23:43.680Z,99362.08
2022-09-06T17:25:48.505Z,99361.61
2022-09-06T17:27:53.358Z,99362.88
2022-09-06T17:29:58.288Z,99369.73
2022-09-06T17:32:03.586Z,99370.08
2022-09-06T17:34:08.654Z,99377.09
2022-09-06T17:36:15.555Z,99379.61
2022-09-06T17:38:20.366Z,99379.77
2022-09-06T17:40:25.331Z,99377.54
2022-09-06T17:42:30.396Z,99384.39
2022-09-06T17:44:35.614Z,99388.96
2022-09-06T17:46:52.002Z,99392.66
2022-09-06T17:49:02.455Z,99393.95
2022-09-06T17:51:10.614Z,99394.73
2022-09-06T17:53:15.471Z,99401.73
2022-09-06T17:55:20.337Z,99402.10
2022-09-06T17:57:25.265Z,99400.55
2022-09-06T17:59:34.835Z,99400.63
2022-09-06T18:01:41.858Z,99404.13
2022-09-06T18:03:46.978Z,99399.61
2022-09-06T18:05:52.025Z,99399.08
2022-09-06T18:07:57.058Z,99403.52
2022-09-06T18:10:02.095Z,99407.80
2022-09-06T18:12:07.289Z,99410.02
2022-09-06T18:14:14.205Z,99407.15
2022-09-06T18:16:19.491Z,99408.39
2022-09-06T18:18:24.851Z,99407.77
2022-09-06T18:20:30.127Z,99410.95
2022-09-06T18:22:35.414Z,99410.46
2022-09-06T18:24:40.489Z,99415.64
2022-09-06T18:26:46.196Z,99416.53
2022-09-06T18:28:51.883Z,99421.94
2022-09-06T18:31:00.200Z,99424.21
2022-09-06T18:33:05.523Z,99422.55
2022-09-06T18:35:13.937Z,99424.17
2022-09-06T18:37:19.508Z,99422.03
2022-09-06T18:39:24.703Z,99420.64
2022-09-06T18:41:30.210Z,99419.31
2022-09-06T18:43:37.239Z,99421.55
2022-09-06T18:45:42.461Z,99426.95
2022-09-06T18:47:47.427Z,99431.44
2022-09-06T18:49:52.510Z,99432.93
2022-09-06T18:51:57.687Z,99432.61
2022-09-06T18:54:06.468Z,99431.80
2022-09-06T18:56:12.721Z,99428.00
2022-09-06T18:58:17.837Z,99429.93
2022-09-06T19:00:23.064Z,99432.76
2022-09-06T19:02:28.432Z,99437.02
2022-09-06T19:04:34.108Z,99435.92
2022-09-06T19:06:41.072Z,99437.84
2022-09-06T19:08:47.037Z,99435.14
2022-09-06T19:11:00.751Z,99436.50
2022-09-06T19:13:06.140Z,99434.39
2022-09-06T19:15:12.605Z,99438.47
2022-09-06T19:17:18.036Z,99435.71
2022-09-06T19:19:23.853Z,99437.45
2022-09-06T19:21:29.649Z,99431.26
2022-09-06T19:23:36.462Z,99431.80
2022-09-06T19:25:41.248Z,99428.00
2022-09-06T19:27:48.813Z,99425.90
2022-09-06T19:29:54.363Z,99420.91
2022-09-06T19:31:59.741Z,99420.15
2022-09-06T19:34:05.476Z,99418.34
2022-09-06T19:36:12.527Z,99422.97
2022-09-06T19:38:18.143Z,99427.60
2022-09-06T19:40:23.373Z,99424.45
2022-09-06T19:42:28.510Z,99422.07
2022-09-06T19:44:33.736Z,99422.23
2022-09-06T19:46:40.936Z,99419.20
2022-09-06T19:48:49.609Z,99416.42
2022-09-06T19:50:54.675Z,99417.78
2022-09-06T19:53:01.469Z,99421.36
2022-09-06T19:55:10.469Z,99419.20
2022-09-06T19:57:15.193Z,99416.77
2022-09-06T19:59:20.316Z,99419.54
2022-09-06T20:01:26.610Z,99416.80
2022-09-06T20:03:31.809Z,99420.23
2022-09-06T20:05:39.722Z,99417.25
2022-09-06T20:07:44.846Z,99417.84
2022-09-06T20:09:52.492Z,99419.16
2022-09-06T20:11:57.839Z,99420.52
2022-09-06T20:14:03.443Z,99420.20
2022-09-06T20:16:10.291Z,99419.37
2022-09-06T20:18:15.783Z,99418.89
2022-09-06T20:20:21.196Z,99420.95
2022-09-06T20:22:26.719Z,99418.89
2022-09-06T20:24:31.853Z,99410.70
2022-09-06T20:26:37.266Z,99405.17
2022-09-06T20:28:42.526Z,99403.77
2022-09-06T20:30:47.569Z,99402.14
2022-09-06T20:32:52.765Z,99404.08
2022-09-06T20:34:57.902Z,99404.84
2022-09-06T20:37:02.969Z,99402.56
2022-09-06T20:39:08.162Z,99408.08
2022-09-06T20:41:15.295Z,99407.09
2022-09-06T20:43:20.383Z,99405.52
2022-09-06T20:45:25.652Z,99408.56
2022-09-06T20:47:31.451Z,99401.19
2022-09-06T20:49:36.527Z,99402.59
2022-09-06T20:51:42.049Z,99394.19
2022-09-06T20:53:48.907Z,99392.02
2022-09-06T20:56:01.883Z,99386.05
2022-09-06T20:58:07.063Z,99381.82
2022-09-06T21:00:14.556Z,99387.48
2022-09-06T21:02:19.470Z,99389.52
2022-09-06T21:04:24.618Z,99388.80
2022-09-06T21:06:31.551Z,99387.57
2022-09-06T21:08:41.878Z,99389.41
2022-09-06T21:10:47.316Z,99390.28
2022-09-06T21:12:52.094Z,99390.61
2022-09-06T21:14:56.853Z,99389.08
2022-09-06T21:17:01.563Z,99391.30
2022-09-06T21:19:10.862Z,99389.73
2022-09-06T21:21:15.592Z,99387.73
2022-09-06T21:23:20.256Z,99386.21
2022-09-06T21:25:25.067Z,99389.89
2022-09-06T21:27:29.780Z,99387.13
2022-09-06T21:29:34.614Z,99382.90
2022-09-06T21:31:39.440Z,99385.40
2022-09-06T21:33:46.616Z,99380.72
2022-09-06T21:35:51.403Z,99375.89
2022-09-06T21:37:56.161Z,99372.42
2022-09-06T21:40:00.839Z,99372.09
2022-09-06T21:42:06.103Z,99371.23
2022-09-06T21:44:11.133Z,99372.74
2022-09-06T21:46:17.937Z,99379.46
2022-09-06T21:48:22.651Z,99383.14
2022-09-06T21:50:27.329Z,99383.73
2022-09-06T21:52:31.936Z,99386.39
2022-09-06T21:54:36.678Z,99383.94
2022-09-06T21:56:41.509Z,99382.53
2022-09-06T21:58:46.361Z,99377.50
2022-09-06T22:00:55.972Z,99377.77
2022-09-06T22:03:00.902Z,99372.52
2022-09-06T22:05:06.117Z,99372.13
2022-09-06T22:07:10.775Z,99372.18
2022-09-06T22:09:15.668Z,99376.09
2022-09-06T22:11:22.523Z,99376.04
2022-09-06T22:13:27.243Z,99375.50
2022-09-06T22:15:31.923Z,99375.50
2022-09-06T22:17:36.898Z,99373.33
2022-09-06T22:19:41.579Z,99375.22
2022-09-06T22:21:46.338Z,99369.25
2022-09-06T22:23:55.401Z,99368.23
2022-09-06T22:26:06.143Z,99371.41
2022-09-06T22:28:10.892Z,99367.19
2022-09-06T22:30:16.107Z,99362.41
2022-09-06T22:32:23.890Z,99365.39
2022-09-06T22:34:28.739Z,99360.84
2022-09-06T22:36:33.767Z,99358.34
2022-09-06T22:38:38.506Z,99351.84
2022-09-06T22:40:43.270Z,99350.27
2022-09-06T22:42:48.010Z,99348.02
2022-09-06T22:44:52.831Z,99352.39
2022-09-06T22:46:58.123Z,99352.64
2022-09-06T22:49:02.910Z,99360.38
2022-09-06T22:51:07.789Z,99361.79
2022-09-06T22:53:13.175Z,99362.33
2022-09-06T22:55:18.080Z,99359.65
2022-09-06T22:57:22.652Z,99361.45
2022-09-06T22:59:27.367Z,99355.16
2022-09-06T23:01:32.334Z,99354.94
2022-09-06T23:03:37.681Z,99353.68
2022-09-06T23:05:42.338Z,99355.36
2022-09-06T23:07:47.005Z,99354.92
2022-09-06T23:09:51.684Z,99350.79
2022-09-06T23:11:56.398Z,99348.68
2022-09-06T23:14:01.665Z,99349.60
2022-09-06T23:16:08.119Z,99348.13
2022-09-06T23:18:13.119Z,99345.85
2022-09-06T23:20:17.918Z,99346.42
2022-09-06T23:22:22.589Z,99348.66
2022-09-06T23:24:27.377Z,99344.81
2022-09-06T23:26:33.164Z,99340.63
2022-09-06T23:28:38.151Z,99337.00
2022-09-06T23:30:42.889Z,99332.09
2022-09-06T23:32:47.660Z,99330.98
2022-09-06T23:34:52.479Z,99325.95
2022-09-06T23:36:57.222Z,99326.39
2022-09-06T23:39:02.216Z,99323.55
2022-09-06T23:41:07.640Z,99325.13
2022-09-06T23:43:12.348Z,99326.43
2022-09-06T23:45:17.101Z,99322.25
2022-09-06T23:47:21.872Z,99321.75
2022-09-06T23:49:26.577Z,99319.48
2022-09-06T23:51:31.283Z,99318.00
2022-09-06T23:53:35.974Z,99321.08
2022-09-06T23:55:40.857Z,99321.57
2022-09-06T23:57:45.617Z,99319.98
2022-09-06T23:59:50.321Z,99321.13
